createdAt,value
2023-03-22T00:01:38.641Z,98955.59
2023-03-22T00:04:07.240Z,98967.31
2023-03-22T00:06:35.738Z,98964.72
2023-03-22T00:09:04.214Z,98962.34
2023-03-22T00:11:32.697Z,98968.44
2023-03-22T00:14:01.706Z,98976.78
2023-03-22T00:16:30.298Z,98968.03
2023-03-22T00:18:58.825Z,98975.63
2023-03-22T00:21:27.239Z,98975.53
2023-03-22T00:23:55.659Z,98986.47
2023-03-22T00:26:24.118Z,98987.13
2023-03-22T00:28:52.550Z,98993.41
2023-03-22T00:31:21.135Z,98990.53
2023-03-22T00:33:49.579Z,99000.38
2023-03-22T00:36:18.094Z,99004.59
2023-03-22T00:38:46.472Z,99002.47
2023-03-22T00:41:20.903Z,99005.72
2023-03-22T00:43:50.691Z,99005.66
2023-03-22T00:46:21.833Z,99016.25
2023-03-22T00:48:50.551Z,99013.13
2023-03-22T00:51:19.087Z,99020.91
2023-03-22T00:53:50.914Z,99025.69
2023-03-22T00:56:19.786Z,99028.41
2023-03-22T00:58:48.247Z,99031.09
2023-03-22T01:01:16.726Z,99039.44
2023-03-22T01:03:45.501Z,99040.09
2023-03-22T01:06:13.924Z,99042.31
2023-03-22T01:08:42.418Z,99047.28
2023-03-22T01:11:11.265Z,99055.63
2023-03-22T01:13:40.371Z,99059.81
2023-03-22T01:16:10.071Z,99060.50
2023-03-22T01:18:38.693Z,99068.81
2023-03-22T01:21:07.621Z,99072.50
2023-03-22T01:23:36.744Z,99077.25
2023-03-22T01:26:06.246Z,99083.00
2023-03-22T01:28:35.006Z,99082.13
2023-03-22T01:31:04.988Z,99094.28
2023-03-22T01:33:33.508Z,99084.38
2023-03-22T01:36:02.073Z,99081.41
2023-03-22T01:38:30.974Z,99087.72
2023-03-22T01:40:59.662Z,99089.09
2023-03-22T01:43:28.141Z,99087.66
2023-03-22T01:45:57.040Z,99089.03
2023-03-22T01:48:28.059Z,99091.19
2023-03-22T01:51:07.580Z,99093.34
2023-03-22T01:53:42.671Z,99098.31
2023-03-22T01:56:13.201Z,99098.94
2023-03-22T01:58:43.441Z,99102.41
2023-03-22T02:01:12.923Z,99098.13
2023-03-22T02:04:04.602Z,99098.94
2023-03-22T02:06:33.357Z,99107.47
2023-03-22T02:09:02.195Z,99099.06
2023-03-22T02:11:39.536Z,99102.50
2023-03-22T02:14:28.965Z,99106.72
2023-03-22T02:17:15.283Z,99097.75
2023-03-22T02:20:30.372Z,99098.56
2023-03-22T02:23:23.193Z,99097.28
2023-03-22T02:26:18.738Z,99117.88
2023-03-22T02:29:14.882Z,99103.03
2023-03-22T02:31:51.934Z,99114.59
2023-03-22T02:34:46.566Z,99106.91
2023-03-22T02:37:52.039Z,99103.59
2023-03-22T02:40:35.467Z,99106.44
2023-03-22T02:43:15.345Z,99107.97
2023-03-22T02:45:53.763Z,99106.72
2023-03-22T02:48:27.736Z,99103.34
2023-03-22T02:51:23.168Z,99100.75
2023-03-22T02:53:57.494Z,99100.78
2023-03-22T02:56:35.859Z,99104.38
2023-03-22T02:59:08.611Z,99103.63
2023-03-22T03:01:42.963Z,99105.13
2023-03-22T03:04:17.722Z,99105.94
2023-03-22T03:06:50.204Z,99102.53
2023-03-22T03:09:21.772Z,99098.75
2023-03-22T03:11:53.451Z,99106.72
2023-03-22T03:14:23.131Z,99099.72
2023-03-22T03:17:26.550Z,99093.47
2023-03-22T03:20:09.263Z,99099.34
2023-03-22T03:22:56.360Z,99094.41
2023-03-22T03:25:41.916Z,99090.06
2023-03-22T03:28:39.285Z,99095.16
2023-03-22T03:31:30.512Z,99098.19
2023-03-22T03:34:36.444Z,99094.94
2023-03-22T03:37:09.577Z,99092.06
2023-03-22T03:39:45.837Z,99085.81
2023-03-22T03:42:17.729Z,99087.84
2023-03-22T03:44:46.988Z,99082.16
2023-03-22T03:47:16.804Z,99082.91
2023-03-22T03:49:45.567Z,99075.84
2023-03-22T03:52:14.390Z,99062.94
2023-03-22T03:54:43.692Z,99062.13
2023-03-22T03:57:12.986Z,99056.41
2023-03-22T03:59:41.368Z,99045.00
2023-03-22T04:02:09.855Z,99046.88
2023-03-22T04:04:38.242Z,99041.91
2023-03-22T04:07:08.101Z,99029.56
2023-03-22T04:09:38.973Z,99036.69
2023-03-22T04:12:10.583Z,99022.06
2023-03-22T04:14:39.326Z,99025.59
2023-03-22T04:17:07.676Z,99023.28
2023-03-22T04:19:36.194Z,99019.78
2023-03-22T04:22:04.587Z,99008.34
2023-03-22T04:24:32.958Z,99010.19
2023-03-22T04:27:01.637Z,99005.63
2023-03-22T04:29:33.182Z,99002.53
2023-03-22T04:32:01.591Z,98990.31
2023-03-22T04:34:30.326Z,98997.22
2023-03-22T04:36:58.949Z,98979.00
2023-03-22T04:39:27.463Z,98975.00
2023-03-22T04:41:55.792Z,98964.53
2023-03-22T04:44:24.165Z,98961.63
2023-03-22T04:46:52.521Z,98959.25
2023-03-22T04:49:20.883Z,98948.38
2023-03-22T04:51:49.437Z,98948.13
2023-03-22T04:54:17.854Z,98945.75
2023-03-22T04:56:46.366Z,98931.25
2023-03-22T04:59:15.082Z,98931.13
2023-03-22T05:01:43.527Z,98925.34
2023-03-22T05:04:11.900Z,98920.16
2023-03-22T05:06:40.242Z,98910.59
2023-03-22T05:09:09.202Z,98904.44
2023-03-22T05:11:38.018Z,98906.25
2023-03-22T05:14:07.599Z,98893.09
2023-03-22T05:16:36.744Z,98884.28
2023-03-22T05:19:05.135Z,98880.38
2023-03-22T05:21:37.787Z,98872.31
2023-03-22T05:24:06.668Z,98861.38
2023-03-22T05:26:38.912Z,98858.44
2023-03-22T05:29:07.501Z,98847.47
2023-03-22T05:31:38.373Z,98844.47
2023-03-22T05:34:06.751Z,98836.38
2023-03-22T05:36:37.453Z,98829.03
2023-03-22T05:39:05.978Z,98824.53
2023-03-22T05:41:36.561Z,98821.25
2023-03-22T05:44:06.223Z,98811.34
2023-03-22T05:46:34.607Z,98804.59
2023-03-22T05:49:03.060Z,98807.88
2023-03-22T05:51:31.682Z,98801.84
2023-03-22T05:54:00.083Z,98802.91
2023-03-22T05:56:28.478Z,98788.97
2023-03-22T05:58:59.145Z,98787.16
2023-03-22T06:01:27.546Z,98783.25
2023-03-22T06:03:55.867Z,98774.50
2023-03-22T06:06:24.904Z,98762.78
2023-03-22T06:08:53.245Z,98752.41
2023-03-22T06:11:21.648Z,98747.16
2023-03-22T06:13:50.120Z,98741.25
2023-03-22T06:16:19.355Z,98733.75
2023-03-22T06:18:47.770Z,98740.63
2023-03-22T06:21:16.501Z,98723.81
2023-03-22T06:23:45.054Z,98723.06
2023-03-22T06:26:13.465Z,98721.81
2023-03-22T06:28:41.806Z,98709.19
2023-03-22T06:31:11.713Z,98712.94
2023-03-22T06:33:40.136Z,98697.56
2023-03-22T06:36:08.748Z,98679.22
2023-03-22T06:38:37.174Z,98676.63
2023-03-22T06:41:05.672Z,98674.34
2023-03-22T06:43:34.164Z,98670.25
2023-03-22T06:46:02.593Z,98661.13
2023-03-22T06:48:30.978Z,98657.47
2023-03-22T06:51:00.686Z,98648.34
2023-03-22T06:53:29.124Z,98644.25
2023-03-22T06:55:57.504Z,98641.53
2023-03-22T06:58:25.927Z,98630.72
2023-03-22T07:00:56.239Z,98629.34
2023-03-22T07:03:25.123Z,98626.50
2023-03-22T07:05:53.477Z,98625.28
2023-03-22T07:08:21.870Z,98619.06
2023-03-22T07:10:53.094Z,98613.75
2023-03-22T07:13:21.576Z,98607.56
2023-03-22T07:15:49.984Z,98604.84
2023-03-22T07:18:18.352Z,98602.13
2023-03-22T07:20:47.406Z,98592.19
2023-03-22T07:23:17.451Z,98594.44
2023-03-22T07:25:46.543Z,98588.09
2023-03-22T07:28:15.454Z,98583.13
2023-03-22T07:30:44.045Z,98580.91
2023-03-22T07:33:12.511Z,98572.31
2023-03-22T07:35:41.317Z,98566.63
2023-03-22T07:38:09.687Z,98568.09
2023-03-22T07:40:38.538Z,98562.53
2023-03-22T07:43:07.053Z,98559.66
2023-03-22T07:45:36.667Z,98555.44
2023-03-22T07:48:05.168Z,98550.22
2023-03-22T07:50:33.692Z,98553.09
2023-03-22T07:53:02.378Z,98548.59
2023-03-22T07:55:31.171Z,98544.88
2023-03-22T07:57:59.530Z,98533.31
2023-03-22T08:00:28.016Z,98531.84
2023-03-22T08:02:56.646Z,98524.59
2023-03-22T08:05:25.352Z,98530.94
2023-03-22T08:07:55.254Z,98523.47
2023-03-22T08:10:23.720Z,98516.78
2023-03-22T08:12:52.260Z,98516.50
2023-03-22T08:15:22.542Z,98509.03
2023-03-22T08:17:51.161Z,98510.25
2023-03-22T08:20:19.825Z,98512.84
2023-03-22T08:22:48.345Z,98508.97
2023-03-22T08:25:16.895Z,98508.84
2023-03-22T08:27:45.236Z,98505.88
2023-03-22T08:30:14.488Z,98498.06
2023-03-22T08:32:42.854Z,98498.78
2023-03-22T08:35:11.981Z,98487.25
2023-03-22T08:37:41.014Z,98495.06
2023-03-22T08:40:10.845Z,98494.31
2023-03-22T08:42:39.358Z,98492.72
2023-03-22T08:45:08.335Z,98486.13
2023-03-22T08:47:36.975Z,98485.25
2023-03-22T08:50:05.747Z,98482.88
2023-03-22T08:52:34.103Z,98485.94
2023-03-22T08:55:02.542Z,98475.50
2023-03-22T08:57:31.095Z,98480.91
2023-03-22T08:59:59.631Z,98472.72
2023-03-22T09:02:29.030Z,98475.91
2023-03-22T09:04:57.523Z,98472.03
2023-03-22T09:07:25.937Z,98474.00
2023-03-22T09:09:54.279Z,98479.69
2023-03-22T09:12:22.877Z,98468.16
2023-03-22T09:14:51.337Z,98473.72
2023-03-22T09:17:21.409Z,98467.75
2023-03-22T09:19:57.666Z,98462.69
2023-03-22T09:22:31.337Z,98462.53
2023-03-22T09:24:59.715Z,98458.69
2023-03-22T09:27:28.135Z,98463.50
2023-03-22T09:29:56.627Z,98466.22
2023-03-22T09:32:25.097Z,98463.81
2023-03-22T09:34:53.673Z,98466.41
2023-03-22T09:37:22.118Z,98462.38
2023-03-22T09:39:50.545Z,98460.47
2023-03-22T09:42:37.548Z,98456.63
2023-03-22T09:45:08.743Z,98456.19
2023-03-22T09:47:44.997Z,98458.75
2023-03-22T09:50:25.858Z,98457.00
2023-03-22T09:52:55.003Z,98458.81
2023-03-22T09:55:42.511Z,98447.75
2023-03-22T09:59:00.203Z,98468.59
2023-03-22T10:01:54.663Z,98468.16
2023-03-22T10:05:00.143Z,98461.44
2023-03-22T10:08:09.426Z,98467.47
2023-03-22T10:10:42.839Z,98463.47
2023-03-22T10:13:34.210Z,98462.41
2023-03-22T10:16:07.741Z,98477.09
2023-03-22T10:18:44.705Z,98468.28
2023-03-22T10:21:16.331Z,98471.44
2023-03-22T10:23:56.770Z,98479.72
2023-03-22T10:26:39.722Z,98480.16
2023-03-22T10:29:13.975Z,98484.78
2023-03-22T10:31:46.224Z,98485.84
2023-03-22T10:34:25.468Z,98482.69
2023-03-22T10:36:54.403Z,98479.72
2023-03-22T10:39:40.087Z,98482.88
2023-03-22T10:42:19.116Z,98489.03
2023-03-22T10:44:51.945Z,98488.88
2023-03-22T10:47:36.267Z,98485.00
2023-03-22T10:50:10.338Z,98489.63
2023-03-22T10:53:07.472Z,98497.72
2023-03-22T10:55:42.333Z,98506.56
2023-03-22T10:58:20.896Z,98509.66
2023-03-22T11:00:52.913Z,98509.38
2023-03-22T11:03:45.650Z,98507.56
2023-03-22T11:06:19.382Z,98513.69
2023-03-22T11:08:51.423Z,98512.66
2023-03-22T11:11:26.994Z,98516.38
2023-03-22T11:14:00.909Z,98519.53
2023-03-22T11:16:30.985Z,98514.72
2023-03-22T11:19:02.338Z,98519.94
2023-03-22T11:21:34.225Z,98518.72
2023-03-22T11:24:06.912Z,98518.84
2023-03-22T11:26:40.753Z,98509.53
2023-03-22T11:29:20.213Z,98513.41
2023-03-22T11:31:58.701Z,98516.38
2023-03-22T11:34:30.673Z,98522.16
2023-03-22T11:37:02.120Z,98529.47
2023-03-22T11:39:31.298Z,98521.03
2023-03-22T11:42:04.667Z,98536.84
2023-03-22T11:44:38.814Z,98529.75
2023-03-22T11:47:10.124Z,98534.97
2023-03-22T11:49:47.327Z,98541.66
2023-03-22T11:52:27.145Z,98547.44
2023-03-22T11:54:57.086Z,98559.06
2023-03-22T11:57:30.479Z,98546.63
2023-03-22T12:00:12.564Z,98549.69
2023-03-22T12:02:50.947Z,98554.88
2023-03-22T12:05:26.523Z,98548.88
2023-03-22T12:08:27.715Z,98559.91
2023-03-22T12:11:05.985Z,98555.22
2023-03-22T12:13:52.411Z,98560.56
2023-03-22T12:16:28.129Z,98557.97
2023-03-22T12:19:15.923Z,98562.00
2023-03-22T12:21:46.845Z,98563.75
2023-03-22T12:24:35.013Z,98575.50
2023-03-22T12:27:30.575Z,98575.72
2023-03-22T12:30:13.717Z,98583.16
2023-03-22T12:33:00.574Z,98579.97
2023-03-22T12:35:40.206Z,98588.72
2023-03-22T12:38:31.879Z,98589.72
2023-03-22T12:41:06.171Z,98595.63
2023-03-22T12:44:03.770Z,98603.59
2023-03-22T12:46:46.434Z,98611.75
2023-03-22T12:49:33.419Z,98614.25
2023-03-22T12:52:51.023Z,98622.97
2023-03-22T12:55:30.562Z,98618.88
2023-03-22T12:58:00.154Z,98627.75
2023-03-22T13:00:46.356Z,98637.25
2023-03-22T13:03:18.605Z,98637.44
2023-03-22T13:05:51.101Z,98642.75
2023-03-22T13:08:23.801Z,98653.75
2023-03-22T13:11:06.344Z,98652.66
2023-03-22T13:13:43.058Z,98650.22
2023-03-22T13:16:14.198Z,98654.91
2023-03-22T13:18:46.180Z,98670.22
2023-03-22T13:21:20.091Z,98665.13
2023-03-22T13:24:11.056Z,98656.47
2023-03-22T13:26:47.012Z,98666.88
2023-03-22T13:29:35.335Z,98669.69
2023-03-22T13:32:08.083Z,98675.94
2023-03-22T13:34:49.782Z,98680.84
2023-03-22T13:37:38.909Z,98685.00
2023-03-22T13:40:35.913Z,98696.31
2023-03-22T13:43:39.216Z,98705.41
2023-03-22T13:46:17.915Z,98701.81
2023-03-22T13:48:49.690Z,98701.81
2023-03-22T13:51:31.206Z,98707.47
2023-03-22T13:54:14.969Z,98701.81
2023-03-22T13:56:43.289Z,98717.47
2023-03-22T13:59:28.253Z,98713.88
2023-03-22T14:02:12.755Z,98715.22
2023-03-22T14:04:51.269Z,98718.03
2023-03-22T14:07:34.671Z,98720.13
2023-03-22T14:10:18.438Z,98721.44
2023-03-22T14:13:05.115Z,98726.94
2023-03-22T14:15:39.730Z,98720.53
2023-03-22T14:18:33.949Z,98726.19
2023-03-22T14:21:07.391Z,98729.00
